Time;durP1;ratioP1;P1;durP2;ratioP2;P2;SDS_P1;SDS_P2;PMS_P1;PMS_P2;Temp;Humidity;BMP_temperature;BMP_pressure;BME280_temperature;BME280_humidity;BME280_pressure;Samples;Min_cycle;Max_cycle;Signal;HPM_P1;HPM_P2
2021/12/12 00:00:11;;;;;;;52.67;20.27;;;;;;;;;;5037111;28;20063;-68
2021/12/12 00:02:55;;;;;;;44.38;19.20;;;;;;;;;;5035404;28;20121;-68
2021/12/12 00:05:22;;;;;;;45.47;19.58;;;;;;;;;;5034331;28;20052;-68
2021/12/12 00:07:49;;;;;;;47.83;19.25;;;;;;;;;;5034943;28;20045;-68
2021/12/12 00:10:19;;;;;;;42.80;19.60;;;;;;;;;;5036426;28;20042;-68
2021/12/12 00:12:47;;;;;;;47.88;19.88;;;;;;;;;;5036244;28;20047;-67
2021/12/12 00:15:15;;;;;;;47.42;19.48;;;;;;;;;;5039035;28;20508;-68
2021/12/12 00:17:42;;;;;;;47.55;19.60;;;;;;;;;;5032213;28;20720;-68
2021/12/12 00:20:09;;;;;;;44.90;19.95;;;;;;;;;;5039620;28;20120;-68
2021/12/12 00:22:35;;;;;;;45.55;19.92;;;;;;;;;;5041579;28;20068;-68
2021/12/12 00:25:01;;;;;;;46.10;20.92;;;;;;;;;;5042275;28;20067;-68
2021/12/12 00:27:28;;;;;;;46.05;19.15;;;;;;;;;;5042246;28;20056;-68
2021/12/12 00:30:01;;;;;;;42.33;19.15;;;;;;;;;;5038990;28;20033;-68
2021/12/12 00:32:27;;;;;;;50.60;19.00;;;;;;;;;;5041073;28;20413;-68
2021/12/12 00:34:58;;;;;;;45.63;19.90;;;;;;;;;;5041023;28;20088;-69
2021/12/12 00:37:24;;;;;;;43.47;19.58;;;;;;;;;;5042136;28;20041;-69
2021/12/12 00:39:54;;;;;;;40.28;19.13;;;;;;;;;;5043144;28;20060;-68
2021/12/12 00:42:22;;;;;;;46.47;19.80;;;;;;;;;;5036300;28;20040;-74
2021/12/12 00:44:50;;;;;;;43.67;20.07;;;;;;;;;;5034861;28;20499;-68
2021/12/12 00:47:17;;;;;;;47.08;20.35;;;;;;;;;;5032977;28;20097;-68
2021/12/12 00:49:44;;;;;;;42.50;18.95;;;;;;;;;;5032770;28;20041;-68
2021/12/12 00:52:12;;;;;;;45.75;19.90;;;;;;;;;;5031731;28;20461;-68
2021/12/12 00:54:38;;;;;;;41.70;19.40;;;;;;;;;;5038220;28;20128;-68
2021/12/12 00:57:06;;;;;;;35.85;18.02;;;;;;;;;;5033315;28;20048;-68
2021/12/12 00:59:33;;;;;;;44.45;19.00;;;;;;;;;;5031998;28;20052;-68
2021/12/12 01:01:59;;;;;;;42.63;19.73;;;;;;;;;;5035000;28;20045;-69
2021/12/12 01:04:34;;;;;;;39.33;18.35;;;;;;;;;;5034389;28;20041;-68
2021/12/12 01:07:03;;;;;;;44.55;19.33;;;;;;;;;;5032474;28;20095;-68
2021/12/12 01:09:31;;;;;;;44.78;20.13;;;;;;;;;;5032409;28;20426;-69
2021/12/12 01:11:59;;;;;;;52.40;20.33;;;;;;;;;;5032388;28;20045;-68
2021/12/12 01:14:28;;;;;;;44.23;19.70;;;;;;;;;;5031752;28;20158;-68
2021/12/12 01:16:54;;;;;;;;;;;;;;;;;;5030374;28;20171;-70
2021/12/12 01:19:22;;;;;;;50.25;19.23;;;;;;;;;;5034402;28;19920;-68
2021/12/12 01:21:48;;;;;;;;;;;;;;;;;;5035505;28;20072;-68
2021/12/12 01:24:18;;;;;;;38.75;16.85;;;;;;;;;;5032363;28;19921;-68
2021/12/12 01:26:46;;;;;;;42.63;19.95;;;;;;;;;;5031981;28;20553;-68
2021/12/12 01:29:13;;;;;;;43.70;18.77;;;;;;;;;;5034105;28;20053;-68
2021/12/12 01:31:46;;;;;;;34.83;17.83;;;;;;;;;;5036596;28;20045;-68
2021/12/12 01:34:14;;;;;;;38.33;18.75;;;;;;;;;;5037367;28;20041;-69
2021/12/12 01:37:03;;;;;;;39.95;17.85;;;;;;;;;;5037686;28;20140;-68
2021/12/12 01:39:34;;;;;;;41.60;17.80;;;;;;;;;;5038760;28;20566;-68
2021/12/12 01:42:08;;;;;;;39.90;17.77;;;;;;;;;;5037379;28;20045;-69
2021/12/12 01:44:41;;;;;;;40.58;17.35;;;;;;;;;;5036893;28;20076;-68
2021/12/12 01:47:09;;;;;;;41.45;18.38;;;;;;;;;;5036919;28;20715;-68
2021/12/12 01:49:39;;;;;;;41.33;17.85;;;;;;;;;;5037230;28;20153;-69
2021/12/12 01:52:06;;;;;;;40.13;17.60;;;;;;;;;;5038301;28;20044;-69
2021/12/12 01:54:43;;;;;;;43.83;17.63;;;;;;;;;;5033685;28;20037;-69
2021/12/12 01:57:10;;;;;;;39.88;17.42;;;;;;;;;;5035431;28;20049;-69
2021/12/12 01:59:37;;;;;;;46.42;18.65;;;;;;;;;;5040588;28;20406;-69
2021/12/12 02:02:07;;;;;;;40.78;17.30;;;;;;;;;;5036786;28;20118;-69
2021/12/12 02:04:35;;;;;;;42.50;17.90;;;;;;;;;;5035183;28;20037;-69
2021/12/12 02:07:03;;;;;;;38.70;16.75;;;;;;;;;;5038002;28;20041;-68
2021/12/12 02:09:30;;;;;;;33.78;18.80;;;;;;;;;;5034585;28;20034;-69
2021/12/12 02:11:59;;;;;;;40.03;17.30;;;;;;;;;;5036120;28;20042;-68
2021/12/12 02:14:27;;;;;;;46.55;17.80;;;;;;;;;;5036441;28;20102;-68
2021/12/12 02:16:57;;;;;;;34.53;16.10;;;;;;;;;;5037899;28;20071;-69
2021/12/12 02:19:32;;;;;;;40.53;16.38;;;;;;;;;;5036104;28;20126;-69
2021/12/12 02:35:36;;;;;;;33.63;14.82;;;;;;;;;;5033247;28;20046;-68
2021/12/12 02:38:03;;;;;;;30.83;15.23;;;;;;;;;;5030847;28;20053;-69
2021/12/12 02:40:32;;;;;;;32.33;14.45;;;;;;;;;;5033354;28;20461;-68
2021/12/12 02:42:59;;;;;;;34.97;15.45;;;;;;;;;;5034826;28;20053;-68
2021/12/12 02:45:31;;;;;;;33.17;15.32;;;;;;;;;;5035821;28;20061;-68
2021/12/12 02:48:02;;;;;;;32.45;14.98;;;;;;;;;;5036970;28;20049;-68
2021/12/12 02:50:32;;;;;;;34.75;13.82;;;;;;;;;;5037197;28;20041;-68
2021/12/12 02:53:01;;;;;;;30.27;14.30;;;;;;;;;;5033466;28;20036;-68
2021/12/12 02:55:30;;;;;;;31.92;13.15;;;;;;;;;;5035447;28;20134;-68
2021/12/12 02:57:57;;;;;;;33.20;13.88;;;;;;;;;;5035468;28;20060;-68
2021/12/12 03:00:25;;;;;;;33.03;13.40;;;;;;;;;;5035880;28;20033;-68
2021/12/12 03:02:57;;;;;;;29.80;13.90;;;;;;;;;;5030563;28;20052;-68
2021/12/12 03:05:24;;;;;;;38.15;13.70;;;;;;;;;;5036718;28;20296;-68
2021/12/12 03:07:50;;;;;;;28.83;14.43;;;;;;;;;;5036170;28;20128;-68
2021/12/12 03:10:20;;;;;;;30.45;13.52;;;;;;;;;;5035794;28;20044;-67
2021/12/12 03:12:46;;;;;;;27.30;13.35;;;;;;;;;;5037735;28;20048;-67
2021/12/12 03:15:16;;;;;;;29.83;12.90;;;;;;;;;;5036565;28;20052;-69
2021/12/12 03:17:43;;;;;;;23.20;13.10;;;;;;;;;;5035395;28;20048;-68
2021/12/12 03:20:12;;;;;;;25.48;11.43;;;;;;;;;;5037940;28;20075;-68
2021/12/12 03:22:38;;;;;;;33.97;12.95;;;;;;;;;;5037348;28;20041;-68
2021/12/12 03:25:07;;;;;;;31.30;12.68;;;;;;;;;;5034759;28;20082;-68
2021/12/12 03:27:33;;;;;;;29.17;13.18;;;;;;;;;;5036959;28;20064;-68
2021/12/12 03:29:59;;;;;;;27.73;12.40;;;;;;;;;;5038486;28;20125;-68
2021/12/12 03:32:25;;;;;;;28.52;11.45;;;;;;;;;;5032735;28;20046;-68
2021/12/12 03:34:54;;;;;;;33.28;12.38;;;;;;;;;;5036036;28;20119;-68
2021/12/12 03:37:23;;;;;;;30.48;11.85;;;;;;;;;;5037729;28;20036;-68
2021/12/12 03:39:52;;;;;;;30.90;12.38;;;;;;;;;;5038355;28;20049;-68
2021/12/12 03:42:22;;;;;;;26.98;12.32;;;;;;;;;;5038015;28;20044;-68
2021/12/12 03:44:48;;;;;;;30.15;12.65;;;;;;;;;;5038826;28;20045;-67
2021/12/12 03:47:18;;;;;;;30.08;11.57;;;;;;;;;;5037245;28;20087;-68
2021/12/12 03:49:44;;;;;;;25.40;11.45;;;;;;;;;;5032944;28;20040;-68
2021/12/12 03:52:13;;;;;;;23.00;11.35;;;;;;;;;;5037577;28;20041;-69
2021/12/12 03:54:40;;;;;;;26.15;10.60;;;;;;;;;;5036169;28;20071;-68
2021/12/12 03:57:07;;;;;;;25.42;10.50;;;;;;;;;;5038462;28;20041;-68
2021/12/12 03:59:34;;;;;;;27.02;11.13;;;;;;;;;;5036405;28;20110;-68
2021/12/12 04:02:00;;;;;;;21.38;10.02;;;;;;;;;;5035570;28;20040;-68
2021/12/12 04:04:28;;;;;;;20.33;10.43;;;;;;;;;;5038934;28;20087;-68
2021/12/12 04:06:55;;;;;;;24.73;10.30;;;;;;;;;;5035581;28;20045;-69
2021/12/12 04:09:22;;;;;;;23.33;10.63;;;;;;;;;;5038336;28;20562;-73
2021/12/12 04:11:52;;;;;;;24.17;11.40;;;;;;;;;;5037449;28;20045;-69
2021/12/12 04:14:19;;;;;;;20.52;10.43;;;;;;;;;;5037196;28;20064;-68
2021/12/12 04:16:52;;;;;;;28.67;10.88;;;;;;;;;;5035339;28;20120;-68
2021/12/12 04:19:19;;;;;;;24.27;10.00;;;;;;;;;;5034193;28;20037;-68
2021/12/12 04:21:46;;;;;;;18.13;9.15;;;;;;;;;;5036360;28;20052;-69
2021/12/12 04:24:17;;;;;;;22.48;9.55;;;;;;;;;;5037413;28;20049;-68
2021/12/12 04:26:44;;;;;;;17.00;8.68;;;;;;;;;;5036301;28;20038;-69
2021/12/12 04:29:13;;;;;;;17.67;10.02;;;;;;;;;;5038227;28;20120;-68
2021/12/12 04:31:42;;;;;;;20.73;8.60;;;;;;;;;;5035222;28;20422;-68
2021/12/12 04:34:08;;;;;;;18.52;9.68;;;;;;;;;;5035149;28;20052;-68
2021/12/12 04:36:36;;;;;;;15.60;8.85;;;;;;;;;;5037372;28;20115;-68
2021/12/12 04:39:12;;;;;;;17.33;8.85;;;;;;;;;;5037432;28;20116;-69
2021/12/12 04:41:39;;;;;;;23.40;8.82;;;;;;;;;;5035053;28;20044;-68
2021/12/12 04:44:06;;;;;;;19.60;8.98;;;;;;;;;;5033936;28;20112;-69
2021/12/12 04:46:37;;;;;;;17.10;8.60;;;;;;;;;;5036893;28;20111;-68
2021/12/12 04:51:52;;;;;;;15.38;7.95;;;;;;;;;;5031901;28;20526;-68
2021/12/12 04:54:32;;;;;;;16.00;8.30;;;;;;;;;;5038551;28;20643;-68
2021/12/12 04:57:06;;;;;;;15.48;7.95;;;;;;;;;;5035994;28;20103;-68
2021/12/12 04:59:36;;;;;;;13.23;8.18;;;;;;;;;;5034830;28;20049;-68
2021/12/12 05:02:10;;;;;;;16.52;8.32;;;;;;;;;;5037568;28;21437;-68
2021/12/12 05:04:38;;;;;;;16.70;7.70;;;;;;;;;;5039344;28;20082;-68
2021/12/12 05:07:16;;;;;;;15.10;7.85;;;;;;;;;;5038777;28;20414;-69
2021/12/12 05:09:49;;;;;;;11.38;7.03;;;;;;;;;;5039625;28;20068;-68
2021/12/12 05:12:36;;;;;;;18.05;8.23;;;;;;;;;;5040079;28;20120;-68
2021/12/12 05:15:06;;;;;;;11.93;6.40;;;;;;;;;;5038734;28;20053;-68
2021/12/12 05:17:37;;;;;;;18.30;7.25;;;;;;;;;;5039557;28;20041;-68
2021/12/12 05:20:06;;;;;;;11.82;6.38;;;;;;;;;;5039033;28;20041;-68
2021/12/12 05:22:35;;;;;;;13.65;6.07;;;;;;;;;;5043107;28;20191;-68
2021/12/12 05:25:04;;;;;;;15.52;7.15;;;;;;;;;;5039089;28;20088;-68
2021/12/12 05:27:31;;;;;;;13.15;6.35;;;;;;;;;;5042023;28;20037;-67
2021/12/12 05:29:59;;;;;;;9.90;6.35;;;;;;;;;;5040953;28;20055;-69
2021/12/12 05:32:27;;;;;;;10.35;5.70;;;;;;;;;;5040507;28;20049;-68
2021/12/12 05:34:54;;;;;;;10.27;5.43;;;;;;;;;;5041506;28;20186;-68
2021/12/12 05:37:20;;;;;;;9.50;6.00;;;;;;;;;;5043138;28;20059;-68
2021/12/12 05:39:48;;;;;;;13.02;6.65;;;;;;;;;;5035803;28;20052;-67
2021/12/12 05:42:15;;;;;;;9.25;5.50;;;;;;;;;;5042091;28;20126;-69
2021/12/12 05:44:41;;;;;;;10.45;6.50;;;;;;;;;;5041946;28;20654;-69
2021/12/12 05:47:09;;;;;;;9.98;6.13;;;;;;;;;;5039608;28;20052;-68
2021/12/12 05:49:36;;;;;;;11.45;5.97;;;;;;;;;;5041491;28;20048;-68
2021/12/12 05:52:05;;;;;;;8.82;5.57;;;;;;;;;;5042046;28;20045;-68
2021/12/12 05:54:32;;;;;;;9.98;5.57;;;;;;;;;;5039373;28;20873;-69
2021/12/12 05:57:00;;;;;;;15.82;8.30;;;;;;;;;;5039851;28;20403;-68
2021/12/12 05:59:27;;;;;;;11.52;5.45;;;;;;;;;;5040672;28;20041;-68
2021/12/12 06:01:53;;;;;;;10.90;6.32;;;;;;;;;;5041111;28;20051;-68
2021/12/12 06:04:20;;;;;;;11.30;6.07;;;;;;;;;;5041975;28;20041;-68
2021/12/12 06:06:47;;;;;;;12.10;6.32;;;;;;;;;;5037092;28;20045;-68
2021/12/12 06:09:14;;;;;;;9.35;6.07;;;;;;;;;;5039396;28;20037;-69
2021/12/12 06:11:42;;;;;;;10.93;6.72;;;;;;;;;;5035227;28;20052;-68
2021/12/12 06:14:09;;;;;;;9.43;6.15;;;;;;;;;;5040865;28;20127;-68
2021/12/12 06:16:36;;;;;;;9.85;5.82;;;;;;;;;;5039114;28;20041;-68
2021/12/12 06:19:06;;;;;;;11.32;5.88;;;;;;;;;;5038318;28;20094;-68
2021/12/12 06:21:32;;;;;;;9.80;5.65;;;;;;;;;;5036837;28;20045;-68
2021/12/12 06:24:00;;;;;;;9.77;6.70;;;;;;;;;;5036099;28;20045;-68
2021/12/12 06:26:26;;;;;;;8.48;6.05;;;;;;;;;;5035805;28;20037;-68
2021/12/12 06:28:52;;;;;;;10.57;5.85;;;;;;;;;;5037153;28;20041;-69
2021/12/12 06:31:19;;;;;;;11.30;6.25;;;;;;;;;;5034880;28;20532;-68
2021/12/12 06:33:46;;;;;;;10.68;6.57;;;;;;;;;;5039224;28;20132;-67
2021/12/12 06:36:13;;;;;;;9.45;6.13;;;;;;;;;;5039076;28;20037;-68
2021/12/12 06:38:41;;;;;;;12.07;6.45;;;;;;;;;;5035657;28;20044;-68
2021/12/12 06:41:08;;;;;;;9.07;6.37;;;;;;;;;;5035415;28;20072;-67
2021/12/12 06:43:35;;;;;;;11.77;5.95;;;;;;;;;;5035973;28;20111;-68
2021/12/12 06:46:03;;;;;;;10.27;6.00;;;;;;;;;;5037958;28;20051;-68
2021/12/12 06:48:29;;;;;;;10.23;6.40;;;;;;;;;;5036196;28;20521;-70
2021/12/12 06:50:56;;;;;;;11.60;5.85;;;;;;;;;;5036172;28;20411;-68
2021/12/12 06:53:24;;;;;;;9.73;5.45;;;;;;;;;;5039240;28;20123;-69
2021/12/12 06:55:51;;;;;;;10.85;6.35;;;;;;;;;;5029700;28;20410;-70
2021/12/12 06:58:18;;;;;;;7.82;5.25;;;;;;;;;;5035831;28;20073;-70
2021/12/12 07:00:46;;;;;;;12.15;6.38;;;;;;;;;;5044933;28;20053;-70
2021/12/12 07:03:13;;;;;;;7.95;5.53;;;;;;;;;;5037800;28;20498;-69
2021/12/12 07:05:40;;;;;;;9.68;6.03;;;;;;;;;;5050354;28;20037;-70
2021/12/12 07:08:06;;;;;;;8.43;5.13;;;;;;;;;;5043565;28;20135;-69
2021/12/12 07:10:32;;;;;;;8.32;5.18;;;;;;;;;;5044256;28;20406;-69
2021/12/12 07:12:59;;;;;;;12.30;5.72;;;;;;;;;;5046829;28;20048;-69
2021/12/12 07:15:28;;;;;;;8.88;5.63;;;;;;;;;;5045192;28;20041;-70
2021/12/12 07:17:56;;;;;;;7.88;5.40;;;;;;;;;;5042786;28;20047;-72
2021/12/12 07:20:22;;;;;;;9.40;6.03;;;;;;;;;;5047372;28;20041;-72
2021/12/12 07:22:49;;;;;;;9.02;5.45;;;;;;;;;;5044563;28;20037;-70
2021/12/12 07:25:16;;;;;;;9.68;5.68;;;;;;;;;;5033209;28;20044;-70
2021/12/12 07:27:42;;;;;;;8.18;5.40;;;;;;;;;;5027337;28;20103;-71
2021/12/12 07:30:09;;;;;;;9.73;5.47;;;;;;;;;;5028160;28;20049;-70
2021/12/12 07:32:37;;;;;;;8.98;5.20;;;;;;;;;;5041570;28;20120;-70
2021/12/12 07:35:06;;;;;;;10.02;5.88;;;;;;;;;;5026007;28;20045;-70
2021/12/12 07:37:32;;;;;;;8.60;5.57;;;;;;;;;;5029235;28;20128;-70
2021/12/12 07:39:59;;;;;;;9.52;5.68;;;;;;;;;;5042746;28;20063;-70
2021/12/12 07:42:25;;;;;;;9.65;5.38;;;;;;;;;;5040541;28;20047;-71
2021/12/12 07:44:53;;;;;;;8.73;5.18;;;;;;;;;;5046886;28;20041;-72
2021/12/12 07:47:19;;;;;;;8.48;5.40;;;;;;;;;;5042517;28;20084;-71
2021/12/12 07:49:48;;;;;;;9.80;5.72;;;;;;;;;;5043878;28;20049;-71
2021/12/12 07:52:17;;;;;;;8.70;5.45;;;;;;;;;;5043707;28;20032;-72
2021/12/12 07:54:44;;;;;;;9.10;5.43;;;;;;;;;;5044209;28;20043;-71
2021/12/12 07:57:11;;;;;;;8.00;4.77;;;;;;;;;;5035115;28;20049;-74
2021/12/12 07:59:37;;;;;;;8.40;5.68;;;;;;;;;;5050612;28;20328;-71
2021/12/12 08:02:05;;;;;;;11.35;5.60;;;;;;;;;;5048635;28;20084;-71
2021/12/12 08:04:32;;;;;;;8.35;5.18;;;;;;;;;;5042590;28;20057;-71
2021/12/12 08:07:00;;;;;;;9.40;5.03;;;;;;;;;;5043143;28;20041;-72
2021/12/12 08:09:27;;;;;;;9.50;4.97;;;;;;;;;;5042957;28;20072;-71
2021/12/12 08:11:54;;;;;;;7.50;4.70;;;;;;;;;;5043480;28;20127;-72
2021/12/12 08:14:23;;;;;;;7.40;4.53;;;;;;;;;;5037210;28;20053;-71
2021/12/12 08:16:51;;;;;;;8.82;5.03;;;;;;;;;;5041082;28;20045;-71
2021/12/12 08:19:18;;;;;;;9.65;5.82;;;;;;;;;;5043218;28;20044;-71
2021/12/12 08:21:45;;;;;;;9.52;5.65;;;;;;;;;;5044594;28;20087;-71
2021/12/12 08:24:12;;;;;;;12.43;6.93;;;;;;;;;;5043218;28;20476;-71
2021/12/12 08:26:39;;;;;;;10.20;5.88;;;;;;;;;;5041263;28;20391;-71
2021/12/12 08:29:06;;;;;;;10.82;6.20;;;;;;;;;;5024383;28;20399;-71
2021/12/12 08:31:33;;;;;;;15.10;6.63;;;;;;;;;;5029908;28;20041;-72
2021/12/12 08:33:59;;;;;;;12.65;6.75;;;;;;;;;;5042373;28;20144;-70
2021/12/12 08:36:25;;;;;;;11.02;6.85;;;;;;;;;;5043810;28;20086;-71
2021/12/12 08:38:53;;;;;;;13.10;6.80;;;;;;;;;;5045094;28;20483;-71
2021/12/12 08:41:20;;;;;;;13.27;6.72;;;;;;;;;;5040244;28;20041;-71
2021/12/12 08:43:46;;;;;;;13.73;7.43;;;;;;;;;;5045693;28;20048;-71
2021/12/12 08:46:14;;;;;;;15.65;7.38;;;;;;;;;;5047869;28;20045;-74
2021/12/12 08:48:42;;;;;;;12.02;6.78;;;;;;;;;;5048908;28;20044;-68
2021/12/12 08:51:11;;;;;;;12.90;7.22;;;;;;;;;;5046483;28;20041;-67
2021/12/12 08:53:38;;;;;;;13.07;7.03;;;;;;;;;;5045765;28;20041;-66
2021/12/12 08:56:05;;;;;;;12.57;7.50;;;;;;;;;;5048524;28;20406;-67
2021/12/12 08:58:33;;;;;;;12.68;7.53;;;;;;;;;;5044529;28;20041;-66
2021/12/12 09:13:33;;;;;;;18.20;9.00;;;;;;;;;;4482970;22;20055;-65
2021/12/12 09:25:50;;;;;;;15.85;8.82;;;;;;;;;;5048390;28;20035;-65
2021/12/12 09:28:43;;;;;;;19.73;9.48;;;;;;;;;;5049572;28;20068;-64
2021/12/12 09:31:11;;;;;;;18.08;9.30;;;;;;;;;;5052250;28;20112;-65
2021/12/12 09:33:38;;;;;;;20.60;9.73;;;;;;;;;;5054872;28;20101;-65
2021/12/12 09:36:08;;;;;;;24.58;10.60;;;;;;;;;;5050694;28;20045;-64
2021/12/12 09:38:39;;;;;;;21.13;10.55;;;;;;;;;;5051576;28;20041;-64
2021/12/12 09:41:12;;;;;;;21.85;11.27;;;;;;;;;;5056778;28;20045;-64
2021/12/12 09:43:40;;;;;;;21.55;10.82;;;;;;;;;;5055014;28;20047;-64
2021/12/12 09:46:19;;;;;;;24.48;11.38;;;;;;;;;;5056957;28;20044;-64
2021/12/12 09:51:50;;;;;;;24.05;10.88;;;;;;;;;;5056863;28;20040;-64
2021/12/12 09:54:24;;;;;;;24.77;11.40;;;;;;;;;;5059026;28;20473;-65
2021/12/12 09:56:56;;;;;;;25.27;11.35;;;;;;;;;;5055881;28;20521;-64
2021/12/12 09:59:43;;;;;;;26.17;12.13;;;;;;;;;;5056233;28;20056;-64
2021/12/12 10:02:19;;;;;;;24.85;11.13;;;;;;;;;;5056802;28;20091;-64
2021/12/12 10:04:45;;;;;;;21.90;11.20;;;;;;;;;;5057759;28;20603;-64
2021/12/12 10:07:16;;;;;;;21.83;11.50;;;;;;;;;;5061995;28;20635;-64
2021/12/12 10:09:47;;;;;;;21.20;9.85;;;;;;;;;;5057871;28;20051;-64
2021/12/12 10:12:16;;;;;;;21.77;11.13;;;;;;;;;;5059954;28;20123;-64
2021/12/12 10:14:45;;;;;;;23.15;10.48;;;;;;;;;;5049941;28;20140;-64
2021/12/12 10:17:11;;;;;;;;;;;;;;;;;;5060424;28;20045;-64
2021/12/12 10:19:48;;;;;;;20.15;9.60;;;;;;;;;;5050615;28;19929;-64
2021/12/12 10:22:20;;;;;;;20.13;9.73;;;;;;;;;;5046546;28;20456;-64
2021/12/12 10:24:49;;;;;;;21.33;10.10;;;;;;;;;;5038641;28;20047;-65
2021/12/12 10:27:24;;;;;;;22.05;11.18;;;;;;;;;;5043803;28;20048;-65
2021/12/12 10:30:10;;;;;;;20.00;8.75;;;;;;;;;;5057654;28;20125;-64
2021/12/12 10:32:41;;;;;;;19.45;9.93;;;;;;;;;;5055923;28;20525;-65
2021/12/12 10:35:11;;;;;;;17.30;9.45;;;;;;;;;;5056702;28;20049;-64
2021/12/12 10:37:49;;;;;;;17.02;9.35;;;;;;;;;;5054395;28;20044;-64
2021/12/12 10:40:19;;;;;;;18.00;9.00;;;;;;;;;;5057523;28;20113;-65
2021/12/12 10:42:48;;;;;;;16.95;9.25;;;;;;;;;;5059027;28;20182;-65
2021/12/12 10:45:23;;;;;;;22.40;9.07;;;;;;;;;;5060782;28;20052;-64
2021/12/12 10:47:53;;;;;;;18.13;9.27;;;;;;;;;;5060877;28;20110;-64
2021/12/12 10:50:38;;;;;;;18.30;8.90;;;;;;;;;;5058214;28;20111;-65
2021/12/12 10:53:07;;;;;;;17.58;8.68;;;;;;;;;;5055670;28;20591;-64
2021/12/12 10:55:34;;;;;;;21.38;8.98;;;;;;;;;;5044308;28;20041;-65
2021/12/12 10:58:16;;;;;;;16.50;8.65;;;;;;;;;;5054919;28;20135;-64
2021/12/12 11:00:46;;;;;;;18.25;9.18;;;;;;;;;;5040998;28;20120;-65
2021/12/12 11:03:17;;;;;;;15.23;7.97;;;;;;;;;;5047407;28;20813;-65
2021/12/12 11:05:49;;;;;;;16.95;8.30;;;;;;;;;;5049089;28;20040;-64
2021/12/12 11:08:23;;;;;;;16.13;8.80;;;;;;;;;;5053164;28;20452;-64
2021/12/12 11:10:50;;;;;;;19.52;8.43;;;;;;;;;;5046935;28;20103;-64
2021/12/12 11:13:19;;;;;;;15.82;8.00;;;;;;;;;;5045864;28;20080;-64
2021/12/12 11:15:54;;;;;;;15.20;7.55;;;;;;;;;;5045668;28;20076;-64
2021/12/12 11:18:24;;;;;;;16.38;8.18;;;;;;;;;;5048942;28;20045;-64
2021/12/12 11:20:57;;;;;;;16.17;8.52;;;;;;;;;;5046350;28;20047;-64
2021/12/12 11:23:28;;;;;;;19.05;9.02;;;;;;;;;;5045664;28;20052;-65
2021/12/12 11:26:10;;;;;;;20.38;9.35;;;;;;;;;;5047036;28;20028;-66
2021/12/12 11:28:46;;;;;;;17.77;8.68;;;;;;;;;;5049939;28;20133;-66
2021/12/12 11:31:18;;;;;;;20.15;8.52;;;;;;;;;;5056238;28;20058;-66
2021/12/12 11:33:47;;;;;;;17.17;9.10;;;;;;;;;;5050817;28;20051;-67
2021/12/12 11:36:15;;;;;;;18.25;8.35;;;;;;;;;;5052923;28;20056;-66
2021/12/12 11:38:43;;;;;;;19.40;8.52;;;;;;;;;;5045555;28;20136;-66
2021/12/12 11:41:10;;;;;;;18.10;8.68;;;;;;;;;;5050162;28;20106;-66
2021/12/12 11:43:41;;;;;;;19.85;9.00;;;;;;;;;;5042093;28;20561;-67
2021/12/12 11:46:20;;;;;;;20.83;8.95;;;;;;;;;;5046006;28;20134;-66
2021/12/12 11:48:50;;;;;;;18.88;8.90;;;;;;;;;;5043584;28;20040;-65
2021/12/12 11:51:22;;;;;;;18.13;8.98;;;;;;;;;;5046734;28;20131;-66
2021/12/12 11:53:51;;;;;;;16.42;8.20;;;;;;;;;;5043707;28;20055;-65
2021/12/12 11:56:21;;;;;;;18.52;8.90;;;;;;;;;;5046312;28;20065;-65
2021/12/12 11:59:03;;;;;;;15.38;8.05;;;;;;;;;;5043529;28;20040;-65
2021/12/12 12:01:35;;;;;;;21.10;9.10;;;;;;;;;;5047606;28;20048;-65
2021/12/12 12:04:09;;;;;;;18.08;9.13;;;;;;;;;;5050690;28;20089;-69
2021/12/12 12:06:41;;;;;;;18.73;9.00;;;;;;;;;;5050785;28;20040;-70
2021/12/12 12:09:18;;;;;;;18.92;9.00;;;;;;;;;;5048648;28;20048;-70
2021/12/12 12:12:03;;;;;;;18.45;9.00;;;;;;;;;;5052882;28;20053;-69
2021/12/12 12:14:32;;;;;;;18.55;9.20;;;;;;;;;;5049411;28;20159;-70
2021/12/12 12:17:06;;;;;;;19.95;9.60;;;;;;;;;;5054793;28;20053;-70
2021/12/12 12:19:41;;;;;;;19.42;9.38;;;;;;;;;;5056666;28;22039;-70
2021/12/12 12:22:26;;;;;;;19.88;8.57;;;;;;;;;;5043199;28;20055;-70
2021/12/12 12:24:59;;;;;;;18.40;8.55;;;;;;;;;;5054393;28;20045;-70
2021/12/12 12:27:35;;;;;;;20.95;9.85;;;;;;;;;;5053336;28;20075;-69
2021/12/12 12:30:02;;;;;;;21.20;9.30;;;;;;;;;;5048213;28;20347;-69
2021/12/12 12:32:41;;;;;;;21.35;9.13;;;;;;;;;;5044895;28;20127;-69
2021/12/12 12:35:14;;;;;;;19.73;9.82;;;;;;;;;;5050187;28;20052;-69
2021/12/12 12:37:59;;;;;;;20.75;10.10;;;;;;;;;;5052949;28;20056;-70
2021/12/12 12:40:36;;;;;;;19.27;9.80;;;;;;;;;;5044865;28;20516;-69
2021/12/12 12:43:21;;;;;;;18.55;9.63;;;;;;;;;;5047002;28;20056;-70
2021/12/12 12:46:03;;;;;;;20.63;9.27;;;;;;;;;;5053519;28;20702;-70
2021/12/12 12:48:46;;;;;;;17.45;8.98;;;;;;;;;;5046623;28;20041;-70
2021/12/12 12:51:16;;;;;;;18.30;8.43;;;;;;;;;;5054479;28;20053;-69
2021/12/12 12:53:49;;;;;;;18.60;8.60;;;;;;;;;;5050336;28;20037;-69
2021/12/12 12:56:36;;;;;;;17.48;7.70;;;;;;;;;;5049788;28;20060;-69
2021/12/12 12:59:10;;;;;;;19.75;9.73;;;;;;;;;;5038792;28;20534;-68
2021/12/12 13:01:46;;;;;;;17.33;8.98;;;;;;;;;;5043703;28;20053;-69
2021/12/12 13:04:16;;;;;;;25.88;9.48;;;;;;;;;;5034320;28;20049;-69
2021/12/12 13:06:48;;;;;;;18.90;8.93;;;;;;;;;;5035963;28;20075;-68
2021/12/12 13:09:21;;;;;;;19.13;8.70;;;;;;;;;;5043070;28;20132;-69
2021/12/12 13:11:55;;;;;;;19.70;8.80;;;;;;;;;;5044033;28;20132;-68
2021/12/12 13:14:25;;;;;;;17.95;8.57;;;;;;;;;;5042780;28;20111;-69
2021/12/12 13:17:09;;;;;;;19.30;9.52;;;;;;;;;;5041674;28;20107;-69
2021/12/12 13:19:44;;;;;;;19.10;9.27;;;;;;;;;;5038934;28;20183;-70
2021/12/12 13:22:18;;;;;;;17.67;8.73;;;;;;;;;;5041146;28;20063;-69
2021/12/12 13:24:53;;;;;;;19.83;9.07;;;;;;;;;;5038173;28;20397;-69
2021/12/12 13:27:34;;;;;;;21.63;9.50;;;;;;;;;;5050602;28;20141;-70
2021/12/12 13:30:05;;;;;;;20.80;9.10;;;;;;;;;;5045718;28;20572;-69
2021/12/12 13:32:38;;;;;;;19.80;9.13;;;;;;;;;;5046073;28;20048;-68
2021/12/12 13:35:07;;;;;;;20.42;9.52;;;;;;;;;;5051940;28;20064;-67
2021/12/12 13:37:40;;;;;;;18.80;9.35;;;;;;;;;;5029271;28;20497;-67
2021/12/12 13:40:10;;;;;;;17.35;9.00;;;;;;;;;;5039330;28;20869;-68
2021/12/12 13:42:56;;;;;;;20.45;9.90;;;;;;;;;;5043706;28;20132;-69
2021/12/12 13:45:28;;;;;;;22.35;9.65;;;;;;;;;;5027001;28;20061;-68
2021/12/12 13:48:04;;;;;;;22.92;10.15;;;;;;;;;;5042189;28;20124;-68
2021/12/12 13:50:33;;;;;;;18.10;8.77;;;;;;;;;;5044383;28;20088;-68
2021/12/12 13:53:11;;;;;;;21.40;9.82;;;;;;;;;;5045249;28;20456;-68
2021/12/12 13:55:48;;;;;;;17.40;8.73;;;;;;;;;;5044339;28;20051;-69
2021/12/12 13:58:19;;;;;;;21.50;10.23;;;;;;;;;;5043841;28;20045;-69
2021/12/12 14:00:47;;;;;;;23.80;9.90;;;;;;;;;;5045718;28;20049;-68
2021/12/12 14:03:19;;;;;;;21.08;9.70;;;;;;;;;;5045661;28;20159;-68
2021/12/12 14:05:47;;;;;;;18.33;9.80;;;;;;;;;;5045274;28;20512;-68
2021/12/12 14:08:16;;;;;;;19.88;9.52;;;;;;;;;;5045047;28;20045;-68
2021/12/12 14:10:47;;;;;;;21.52;9.82;;;;;;;;;;5045049;28;20052;-67
2021/12/12 14:13:16;;;;;;;20.17;10.15;;;;;;;;;;5043775;28;20131;-68
2021/12/12 14:15:45;;;;;;;21.92;10.13;;;;;;;;;;5044511;28;20506;-68
2021/12/12 14:18:12;;;;;;;22.77;10.20;;;;;;;;;;5042289;28;20049;-67
2021/12/12 14:20:43;;;;;;;19.13;10.30;;;;;;;;;;5046841;28;20121;-67
2021/12/12 14:23:13;;;;;;;21.10;9.50;;;;;;;;;;5042429;28;20051;-67
2021/12/12 14:25:42;;;;;;;19.75;10.13;;;;;;;;;;5044199;28;20099;-67
2021/12/12 14:28:08;;;;;;;;;;;;;;;;;;5043103;28;20049;-68
2021/12/12 14:30:36;;;;;;;15.13;8.45;;;;;;;;;;5045553;28;19921;-68
2021/12/12 14:33:05;;;;;;;15.70;8.75;;;;;;;;;;5044553;28;20122;-67
2021/12/12 14:35:35;;;;;;;18.33;9.07;;;;;;;;;;5044498;28;20045;-68
2021/12/12 14:38:01;;;;;;;16.00;8.57;;;;;;;;;;5042542;28;20131;-69
2021/12/12 14:40:30;;;;;;;18.02;8.77;;;;;;;;;;5044524;28;20055;-68
2021/12/12 14:42:56;;;;;;;;;;;;;;;;;;5045665;28;20044;-68
2021/12/12 14:45:29;;;;;;;13.70;6.93;;;;;;;;;;5043726;28;20322;-68
2021/12/12 14:47:58;;;;;;;14.60;7.80;;;;;;;;;;5044981;28;20049;-69
2021/12/12 14:50:26;;;;;;;14.55;8.23;;;;;;;;;;5045501;28;20128;-68
2021/12/12 14:52:57;;;;;;;15.73;8.05;;;;;;;;;;5044581;28;20655;-68
2021/12/12 14:55:26;;;;;;;15.63;8.45;;;;;;;;;;5045277;28;20064;-68
2021/12/12 14:57:55;;;;;;;13.95;8.73;;;;;;;;;;5044571;28;20071;-68
2021/12/12 15:00:25;;;;;;;17.95;8.20;;;;;;;;;;5044403;28;20098;-70
2021/12/12 15:02:53;;;;;;;13.82;7.47;;;;;;;;;;5043771;28;20037;-69
2021/12/12 15:05:24;;;;;;;12.55;7.45;;;;;;;;;;5044301;28;20068;-68
2021/12/12 15:07:53;;;;;;;14.10;8.80;;;;;;;;;;5043290;28;20045;-68
2021/12/12 15:10:26;;;;;;;17.30;8.82;;;;;;;;;;5043989;28;20095;-68
2021/12/12 15:12:55;;;;;;;16.02;8.13;;;;;;;;;;5042325;28;20049;-69
2021/12/12 15:15:24;;;;;;;14.05;8.30;;;;;;;;;;5046251;28;20066;-68
2021/12/12 15:17:53;;;;;;;17.25;8.75;;;;;;;;;;5045735;28;20441;-68
2021/12/12 15:20:19;;;;;;;;;;;;;;;;;;5047440;28;20132;-68
2021/12/12 15:22:48;;;;;;;14.10;7.55;;;;;;;;;;5045060;28;19968;-69
2021/12/12 15:25:16;;;;;;;15.38;8.15;;;;;;;;;;5043662;28;20124;-69